sensor_id;sensor_type;location;lat;lon;timestamp;P1;durP1;ratioP1;P2;durP2;ratioP2
27847;SDS011;15212;48.830;8.730;2023-06-04T00:02:07;8.03;;;4.30;;
27847;SDS011;15212;48.830;8.730;2023-06-04T00:04:37;9.28;;;4.67;;
27847;SDS011;15212;48.830;8.730;2023-06-04T00:07:05;9.00;;;4.47;;
27847;SDS011;15212;48.830;8.730;2023-06-04T00:09:34;7.08;;;4.42;;
27847;SDS011;15212;48.830;8.730;2023-06-04T00:12:02;10.13;;;4.83;;
27847;SDS011;15212;48.830;8.730;2023-06-04T00:14:31;10.03;;;4.55;;
27847;SDS011;15212;48.830;8.730;2023-06-04T00:16:59;10.25;;;4.65;;
27847;SDS011;15212;48.830;8.730;2023-06-04T00:19:27;9.18;;;4.22;;
27847;SDS011;15212;48.830;8.730;2023-06-04T00:21:56;8.65;;;4.45;;
27847;SDS011;15212;48.830;8.730;2023-06-04T00:24:24;9.43;;;5.20;;
27847;SDS011;15212;48.830;8.730;2023-06-04T00:26:53;8.63;;;4.60;;
27847;SDS011;15212;48.830;8.730;2023-06-04T00:29:21;7.00;;;4.35;;
27847;SDS011;15212;48.830;8.730;2023-06-04T00:31:49;14.28;;;4.65;;
27847;SDS011;15212;48.830;8.730;2023-06-04T00:34:18;7.62;;;4.58;;
27847;SDS011;15212;48.830;8.730;2023-06-04T00:36:46;11.65;;;5.05;;
27847;SDS011;15212;48.830;8.730;2023-06-04T00:39:15;10.38;;;5.12;;
27847;SDS011;15212;48.830;8.730;2023-06-04T00:41:43;10.45;;;5.05;;
27847;SDS011;15212;48.830;8.730;2023-06-04T00:44:11;8.38;;;4.65;;
27847;SDS011;15212;48.830;8.730;2023-06-04T00:46:40;10.68;;;5.08;;
27847;SDS011;15212;48.830;8.730;2023-06-04T00:49:10;7.37;;;4.65;;
27847;SDS011;15212;48.830;8.730;2023-06-04T00:51:39;8.95;;;4.72;;
27847;SDS011;15212;48.830;8.730;2023-06-04T00:54:07;8.10;;;4.70;;
27847;SDS011;15212;48.830;8.730;2023-06-04T00:56:36;9.13;;;4.45;;
27847;SDS011;15212;48.830;8.730;2023-06-04T00:59:05;8.75;;;4.97;;
27847;SDS011;15212;48.830;8.730;2023-06-04T01:07:47;9.00;;;4.58;;
27847;SDS011;15212;48.830;8.730;2023-06-04T01:10:19;8.90;;;4.70;;
27847;SDS011;15212;48.830;8.730;2023-06-04T01:12:48;7.20;;;4.42;;
27847;SDS011;15212;48.830;8.730;2023-06-04T01:15:16;8.38;;;4.35;;
27847;SDS011;15212;48.830;8.730;2023-06-04T01:17:46;10.70;;;5.00;;
27847;SDS011;15212;48.830;8.730;2023-06-04T01:20:22;8.18;;;4.70;;
27847;SDS011;15212;48.830;8.730;2023-06-04T01:23:48;7.33;;;4.60;;
27847;SDS011;15212;48.830;8.730;2023-06-04T01:25:57;8.25;;;4.55;;
27847;SDS011;15212;48.830;8.730;2023-06-04T01:28:28;14.28;;;4.20;;
27847;SDS011;15212;48.830;8.730;2023-06-04T01:30:59;11.65;;;4.42;;
27847;SDS011;15212;48.830;8.730;2023-06-04T01:33:28;8.18;;;4.50;;
27847;SDS011;15212;48.830;8.730;2023-06-04T01:35:56;10.90;;;4.33;;
27847;SDS011;15212;48.830;8.730;2023-06-04T01:38:27;11.60;;;4.35;;
27847;SDS011;15212;48.830;8.730;2023-06-04T01:40:55;6.40;;;3.75;;
27847;SDS011;15212;48.830;8.730;2023-06-04T01:43:25;8.65;;;4.33;;
27847;SDS011;15212;48.830;8.730;2023-06-04T01:45:54;7.00;;;4.33;;
27847;SDS011;15212;48.830;8.730;2023-06-04T01:48:23;8.43;;;4.40;;
27847;SDS011;15212;48.830;8.730;2023-06-04T01:50:51;10.93;;;4.58;;
27847;SDS011;15212;48.830;8.730;2023-06-04T01:53:19;13.18;;;4.80;;
27847;SDS011;15212;48.830;8.730;2023-06-04T01:55:48;11.35;;;4.87;;
27847;SDS011;15212;48.830;8.730;2023-06-04T01:58:17;6.35;;;4.22;;
27847;SDS011;15212;48.830;8.730;2023-06-04T02:00:50;8.55;;;4.40;;
27847;SDS011;15212;48.830;8.730;2023-06-04T02:03:21;7.80;;;4.53;;
27847;SDS011;15212;48.830;8.730;2023-06-04T02:05:50;7.50;;;4.72;;
27847;SDS011;15212;48.830;8.730;2023-06-04T02:08:18;7.17;;;4.25;;
27847;SDS011;15212;48.830;8.730;2023-06-04T02:10:46;10.30;;;5.15;;
27847;SDS011;15212;48.830;8.730;2023-06-04T02:13:15;9.38;;;4.58;;
27847;SDS011;15212;48.830;8.730;2023-06-04T02:15:44;10.75;;;4.90;;
27847;SDS011;15212;48.830;8.730;2023-06-04T02:18:18;10.38;;;4.70;;
27847;SDS011;15212;48.830;8.730;2023-06-04T02:20:47;7.40;;;4.53;;
27847;SDS011;15212;48.830;8.730;2023-06-04T02:23:16;7.15;;;4.37;;
27847;SDS011;15212;48.830;8.730;2023-06-04T02:25:46;9.95;;;4.47;;
27847;SDS011;15212;48.830;8.730;2023-06-04T02:28:15;7.70;;;4.10;;
27847;SDS011;15212;48.830;8.730;2023-06-04T02:30:44;7.45;;;4.30;;
27847;SDS011;15212;48.830;8.730;2023-06-04T02:33:13;9.25;;;4.30;;
27847;SDS011;15212;48.830;8.730;2023-06-04T02:35:42;10.28;;;4.22;;
27847;SDS011;15212;48.830;8.730;2023-06-04T02:38:10;7.47;;;4.08;;
27847;SDS011;15212;48.830;8.730;2023-06-04T02:40:39;8.08;;;4.45;;
27847;SDS011;15212;48.830;8.730;2023-06-04T02:43:08;15.08;;;4.10;;
27847;SDS011;15212;48.830;8.730;2023-06-04T02:45:37;8.78;;;4.00;;
27847;SDS011;15212;48.830;8.730;2023-06-04T02:48:05;6.80;;;4.37;;
27847;SDS011;15212;48.830;8.730;2023-06-04T02:50:33;12.43;;;4.50;;
27847;SDS011;15212;48.830;8.730;2023-06-04T02:53:02;8.23;;;4.30;;
27847;SDS011;15212;48.830;8.730;2023-06-04T02:55:30;9.35;;;4.10;;
27847;SDS011;15212;48.830;8.730;2023-06-04T02:57:59;9.15;;;4.05;;
27847;SDS011;15212;48.830;8.730;2023-06-04T03:00:28;11.60;;;4.10;;
27847;SDS011;15212;48.830;8.730;2023-06-04T03:02:56;9.45;;;3.98;;
27847;SDS011;15212;48.830;8.730;2023-06-04T03:05:27;9.73;;;3.70;;
27847;SDS011;15212;48.830;8.730;2023-06-04T03:07:57;6.15;;;3.70;;
27847;SDS011;15212;48.830;8.730;2023-06-04T03:10:28;6.70;;;4.10;;
27847;SDS011;15212;48.830;8.730;2023-06-04T03:12:57;6.10;;;3.67;;
27847;SDS011;15212;48.830;8.730;2023-06-04T03:15:25;6.78;;;3.52;;
27847;SDS011;15212;48.830;8.730;2023-06-04T03:17:53;8.28;;;3.45;;
27847;SDS011;15212;48.830;8.730;2023-06-04T03:20:22;7.53;;;3.42;;
27847;SDS011;15212;48.830;8.730;2023-06-04T03:22:51;12.35;;;3.90;;
27847;SDS011;15212;48.830;8.730;2023-06-04T03:25:20;5.05;;;2.92;;
27847;SDS011;15212;48.830;8.730;2023-06-04T03:27:48;8.80;;;3.30;;
27847;SDS011;15212;48.830;8.730;2023-06-04T03:30:16;7.67;;;3.20;;
27847;SDS011;15212;48.830;8.730;2023-06-04T03:32:45;8.30;;;3.80;;
27847;SDS011;15212;48.830;8.730;2023-06-04T03:35:13;8.55;;;3.40;;
27847;SDS011;15212;48.830;8.730;2023-06-04T03:37:42;4.62;;;3.17;;
27847;SDS011;15212;48.830;8.730;2023-06-04T03:40:10;7.70;;;3.45;;
27847;SDS011;15212;48.830;8.730;2023-06-04T03:42:39;5.35;;;3.20;;
27847;SDS011;15212;48.830;8.730;2023-06-04T03:45:08;6.33;;;3.02;;
27847;SDS011;15212;48.830;8.730;2023-06-04T03:47:37;11.40;;;3.00;;
27847;SDS011;15212;48.830;8.730;2023-06-04T03:50:06;7.08;;;3.37;;
27847;SDS011;15212;48.830;8.730;2023-06-04T03:52:35;11.43;;;3.10;;
27847;SDS011;15212;48.830;8.730;2023-06-04T03:55:04;10.95;;;3.33;;
27847;SDS011;15212;48.830;8.730;2023-06-04T03:57:32;5.60;;;3.20;;
27847;SDS011;15212;48.830;8.730;2023-06-04T04:00:01;8.23;;;3.22;;
27847;SDS011;15212;48.830;8.730;2023-06-04T04:02:29;5.90;;;3.00;;
27847;SDS011;15212;48.830;8.730;2023-06-04T04:04:58;8.20;;;3.45;;
27847;SDS011;15212;48.830;8.730;2023-06-04T04:07:27;6.65;;;3.55;;
27847;SDS011;15212;48.830;8.730;2023-06-04T04:09:55;6.30;;;3.45;;
27847;SDS011;15212;48.830;8.730;2023-06-04T04:12:23;10.28;;;3.60;;
27847;SDS011;15212;48.830;8.730;2023-06-04T04:14:52;9.88;;;3.60;;
27847;SDS011;15212;48.830;8.730;2023-06-04T04:17:20;9.30;;;3.30;;
27847;SDS011;15212;48.830;8.730;2023-06-04T04:19:49;5.87;;;3.02;;
27847;SDS011;15212;48.830;8.730;2023-06-04T04:22:17;5.92;;;3.55;;
27847;SDS011;15212;48.830;8.730;2023-06-04T04:24:46;10.03;;;3.42;;
27847;SDS011;15212;48.830;8.730;2023-06-04T04:27:14;7.47;;;3.47;;
27847;SDS011;15212;48.830;8.730;2023-06-04T04:29:43;5.60;;;3.22;;
27847;SDS011;15212;48.830;8.730;2023-06-04T04:32:13;6.05;;;3.52;;
27847;SDS011;15212;48.830;8.730;2023-06-04T04:34:51;6.22;;;3.55;;
27847;SDS011;15212;48.830;8.730;2023-06-04T04:37:21;5.47;;;3.58;;
27847;SDS011;15212;48.830;8.730;2023-06-04T04:39:50;6.40;;;3.60;;
27847;SDS011;15212;48.830;8.730;2023-06-04T04:42:18;6.28;;;3.67;;
27847;SDS011;15212;48.830;8.730;2023-06-04T04:44:47;6.67;;;3.25;;
27847;SDS011;15212;48.830;8.730;2023-06-04T04:47:16;6.87;;;3.33;;
27847;SDS011;15212;48.830;8.730;2023-06-04T04:49:45;5.28;;;3.00;;
27847;SDS011;15212;48.830;8.730;2023-06-04T04:52:15;7.70;;;3.67;;
27847;SDS011;15212;48.830;8.730;2023-06-04T04:54:43;5.30;;;3.12;;
27847;SDS011;15212;48.830;8.730;2023-06-04T04:57:11;5.90;;;3.10;;
27847;SDS011;15212;48.830;8.730;2023-06-04T04:59:40;5.62;;;2.87;;
27847;SDS011;15212;48.830;8.730;2023-06-04T05:02:08;5.72;;;2.60;;
27847;SDS011;15212;48.830;8.730;2023-06-04T05:04:36;4.33;;;2.80;;
27847;SDS011;15212;48.830;8.730;2023-06-04T05:07:05;5.10;;;2.72;;
27847;SDS011;15212;48.830;8.730;2023-06-04T05:09:33;6.03;;;2.75;;
27847;SDS011;15212;48.830;8.730;2023-06-04T05:12:01;5.37;;;3.08;;
27847;SDS011;15212;48.830;8.730;2023-06-04T05:14:31;5.25;;;2.55;;
27847;SDS011;15212;48.830;8.730;2023-06-04T05:17:01;8.08;;;3.30;;
27847;SDS011;15212;48.830;8.730;2023-06-04T05:19:30;6.53;;;2.65;;
27847;SDS011;15212;48.830;8.730;2023-06-04T05:21:59;5.20;;;2.80;;
27847;SDS011;15212;48.830;8.730;2023-06-04T05:24:27;6.08;;;2.62;;
27847;SDS011;15212;48.830;8.730;2023-06-04T05:26:55;6.42;;;2.50;;
27847;SDS011;15212;48.830;8.730;2023-06-04T05:29:24;4.78;;;2.60;;
27847;SDS011;15212;48.830;8.730;2023-06-04T05:31:52;7.70;;;2.90;;
27847;SDS011;15212;48.830;8.730;2023-06-04T05:34:21;6.60;;;2.45;;
27847;SDS011;15212;48.830;8.730;2023-06-04T05:36:49;5.42;;;2.40;;
27847;SDS011;15212;48.830;8.730;2023-06-04T05:39:18;4.97;;;2.30;;
27847;SDS011;15212;48.830;8.730;2023-06-04T05:41:48;8.50;;;2.80;;
27847;SDS011;15212;48.830;8.730;2023-06-04T05:44:17;4.37;;;2.50;;
27847;SDS011;15212;48.830;8.730;2023-06-04T05:46:45;6.70;;;2.47;;
27847;SDS011;15212;48.830;8.730;2023-06-04T05:49:14;4.53;;;2.40;;
27847;SDS011;15212;48.830;8.730;2023-06-04T05:51:43;4.25;;;2.30;;
27847;SDS011;15212;48.830;8.730;2023-06-04T05:54:11;6.58;;;2.47;;
27847;SDS011;15212;48.830;8.730;2023-06-04T05:56:40;5.28;;;2.50;;
27847;SDS011;15212;48.830;8.730;2023-06-04T05:59:08;4.12;;;2.10;;
27847;SDS011;15212;48.830;8.730;2023-06-04T06:01:36;5.53;;;2.20;;
27847;SDS011;15212;48.830;8.730;2023-06-04T06:04:05;4.85;;;1.92;;
27847;SDS011;15212;48.830;8.730;2023-06-04T06:06:33;4.97;;;2.00;;
27847;SDS011;15212;48.830;8.730;2023-06-04T06:09:03;4.60;;;2.15;;
27847;SDS011;15212;48.830;8.730;2023-06-04T06:11:31;4.78;;;2.10;;
27847;SDS011;15212;48.830;8.730;2023-06-04T06:14:00;3.80;;;2.10;;
27847;SDS011;15212;48.830;8.730;2023-06-04T06:16:28;3.80;;;2.10;;
27847;SDS011;15212;48.830;8.730;2023-06-04T06:18:59;4.05;;;2.05;;
27847;SDS011;15212;48.830;8.730;2023-06-04T06:21:28;3.58;;;2.05;;
27847;SDS011;15212;48.830;8.730;2023-06-04T06:23:56;4.22;;;2.00;;
27847;SDS011;15212;48.830;8.730;2023-06-04T06:26:25;2.83;;;1.90;;
27847;SDS011;15212;48.830;8.730;2023-06-04T06:28:53;3.52;;;1.90;;
27847;SDS011;15212;48.830;8.730;2023-06-04T06:31:22;3.45;;;2.05;;
27847;SDS011;15212;48.830;8.730;2023-06-04T06:33:51;5.80;;;2.00;;
27847;SDS011;15212;48.830;8.730;2023-06-04T06:36:20;3.22;;;1.82;;
27847;SDS011;15212;48.830;8.730;2023-06-04T06:38:48;5.95;;;1.77;;
27847;SDS011;15212;48.830;8.730;2023-06-04T06:41:18;6.50;;;2.20;;
27847;SDS011;15212;48.830;8.730;2023-06-04T06:43:46;4.05;;;1.80;;
27847;SDS011;15212;48.830;8.730;2023-06-04T06:46:16;5.50;;;2.10;;
27847;SDS011;15212;48.830;8.730;2023-06-04T06:48:44;3.67;;;2.00;;
27847;SDS011;15212;48.830;8.730;2023-06-04T06:51:14;3.22;;;1.82;;
27847;SDS011;15212;48.830;8.730;2023-06-04T06:53:43;4.42;;;2.27;;
27847;SDS011;15212;48.830;8.730;2023-06-04T06:56:11;3.60;;;2.12;;
27847;SDS011;15212;48.830;8.730;2023-06-04T06:58:41;2.98;;;1.92;;
27847;SDS011;15212;48.830;8.730;2023-06-04T07:01:09;4.60;;;1.90;;
27847;SDS011;15212;48.830;8.730;2023-06-04T07:03:39;3.37;;;2.00;;
27847;SDS011;15212;48.830;8.730;2023-06-04T07:06:07;5.25;;;2.50;;
27847;SDS011;15212;48.830;8.730;2023-06-04T07:08:35;3.65;;;2.42;;
27847;SDS011;15212;48.830;8.730;2023-06-04T07:11:04;3.87;;;2.35;;
27847;SDS011;15212;48.830;8.730;2023-06-04T07:13:32;8.80;;;2.20;;
27847;SDS011;15212;48.830;8.730;2023-06-04T07:16:01;5.97;;;2.27;;
27847;SDS011;15212;48.830;8.730;2023-06-04T07:18:30;5.67;;;2.42;;
27847;SDS011;15212;48.830;8.730;2023-06-04T07:20:58;5.12;;;2.30;;
27847;SDS011;15212;48.830;8.730;2023-06-04T07:23:27;6.60;;;2.30;;
27847;SDS011;15212;48.830;8.730;2023-06-04T07:25:55;3.37;;;2.10;;
27847;SDS011;15212;48.830;8.730;2023-06-04T07:28:24;2.98;;;2.00;;
27847;SDS011;15212;48.830;8.730;2023-06-04T07:30:52;6.53;;;2.42;;
27847;SDS011;15212;48.830;8.730;2023-06-04T07:33:20;3.87;;;2.30;;
27847;SDS011;15212;48.830;8.730;2023-06-04T07:35:49;3.25;;;2.40;;
27847;SDS011;15212;48.830;8.730;2023-06-04T07:38:17;5.30;;;2.35;;
27847;SDS011;15212;48.830;8.730;2023-06-04T07:40:46;6.03;;;2.27;;
27847;SDS011;15212;48.830;8.730;2023-06-04T07:43:14;3.35;;;2.08;;
27847;SDS011;15212;48.830;8.730;2023-06-04T07:45:43;4.12;;;2.20;;
27847;SDS011;15212;48.830;8.730;2023-06-04T07:48:11;3.77;;;2.22;;
27847;SDS011;15212;48.830;8.730;2023-06-04T07:50:39;4.70;;;2.27;;
27847;SDS011;15212;48.830;8.730;2023-06-04T07:53:08;4.03;;;2.15;;
27847;SDS011;15212;48.830;8.730;2023-06-04T07:55:36;4.25;;;2.55;;
27847;SDS011;15212;48.830;8.730;2023-06-04T07:58:05;4.53;;;2.05;;
27847;SDS011;15212;48.830;8.730;2023-06-04T08:00:33;5.55;;;2.35;;
27847;SDS011;15212;48.830;8.730;2023-06-04T08:03:01;6.30;;;2.50;;
27847;SDS011;15212;48.830;8.730;2023-06-04T08:05:30;4.65;;;2.72;;
27847;SDS011;15212;48.830;8.730;2023-06-04T08:07:59;6.35;;;2.80;;
27847;SDS011;15212;48.830;8.730;2023-06-04T08:10:29;5.80;;;2.62;;
27847;SDS011;15212;48.830;8.730;2023-06-04T08:12:58;4.12;;;2.50;;
27847;SDS011;15212;48.830;8.730;2023-06-04T08:15:26;3.87;;;2.62;;
27847;SDS011;15212;48.830;8.730;2023-06-04T08:17:54;8.50;;;3.22;;
27847;SDS011;15212;48.830;8.730;2023-06-04T08:20:23;6.40;;;2.72;;
27847;SDS011;15212;48.830;8.730;2023-06-04T08:22:51;5.62;;;2.60;;
27847;SDS011;15212;48.830;8.730;2023-06-04T08:25:20;5.45;;;2.90;;
27847;SDS011;15212;48.830;8.730;2023-06-04T08:27:48;8.08;;;3.02;;
27847;SDS011;15212;48.830;8.730;2023-06-04T08:30:17;5.12;;;2.72;;
27847;SDS011;15212;48.830;8.730;2023-06-04T08:32:45;8.73;;;2.92;;
27847;SDS011;15212;48.830;8.730;2023-06-04T08:35:14;6.30;;;3.20;;
27847;SDS011;15212;48.830;8.730;2023-06-04T08:37:42;5.67;;;3.22;;
27847;SDS011;15212;48.830;8.730;2023-06-04T08:40:11;5.62;;;2.70;;
27847;SDS011;15212;48.830;8.730;2023-06-04T08:42:45;6.10;;;2.72;;
27847;SDS011;15212;48.830;8.730;2023-06-04T08:45:13;5.62;;;2.92;;
27847;SDS011;15212;48.830;8.730;2023-06-04T08:47:43;8.05;;;3.05;;
27847;SDS011;15212;48.830;8.730;2023-06-04T08:50:17;6.65;;;2.58;;
27847;SDS011;15212;48.830;8.730;2023-06-04T08:52:51;6.30;;;2.60;;
27847;SDS011;15212;48.830;8.730;2023-06-04T08:55:22;4.60;;;2.45;;
27847;SDS011;15212;48.830;8.730;2023-06-04T08:57:50;6.12;;;2.60;;
27847;SDS011;15212;48.830;8.730;2023-06-04T09:00:20;3.70;;;2.27;;
27847;SDS011;15212;48.830;8.730;2023-06-04T09:02:49;4.87;;;2.85;;
27847;SDS011;15212;48.830;8.730;2023-06-04T09:05:21;5.28;;;3.10;;
27847;SDS011;15212;48.830;8.730;2023-06-04T09:07:52;4.72;;;2.55;;
27847;SDS011;15212;48.830;8.730;2023-06-04T09:10:22;4.00;;;2.52;;
27847;SDS011;15212;48.830;8.730;2023-06-04T09:12:52;6.92;;;2.37;;
27847;SDS011;15212;48.830;8.730;2023-06-04T09:15:23;4.37;;;2.65;;
27847;SDS011;15212;48.830;8.730;2023-06-04T09:17:52;6.45;;;2.60;;
27847;SDS011;15212;48.830;8.730;2023-06-04T09:20:21;6.10;;;2.75;;
27847;SDS011;15212;48.830;8.730;2023-06-04T09:22:50;8.20;;;2.98;;
27847;SDS011;15212;48.830;8.730;2023-06-04T09:25:28;4.92;;;2.50;;
27847;SDS011;15212;48.830;8.730;2023-06-04T09:27:54;6.58;;;2.80;;
27847;SDS011;15212;48.830;8.730;2023-06-04T09:30:26;5.55;;;2.87;;
27847;SDS011;15212;48.830;8.730;2023-06-04T09:32:54;7.30;;;2.40;;
27847;SDS011;15212;48.830;8.730;2023-06-04T09:35:26;5.55;;;2.80;;
27847;SDS011;15212;48.830;8.730;2023-06-04T09:37:55;7.75;;;2.62;;
27847;SDS011;15212;48.830;8.730;2023-06-04T09:40:23;3.80;;;2.47;;
27847;SDS011;15212;48.830;8.730;2023-06-04T09:43:07;6.50;;;2.70;;
27847;SDS011;15212;48.830;8.730;2023-06-04T09:45:37;5.65;;;2.80;;
27847;SDS011;15212;48.830;8.730;2023-06-04T09:48:05;7.95;;;2.77;;
27847;SDS011;15212;48.830;8.730;2023-06-04T09:50:33;4.87;;;3.15;;
27847;SDS011;15212;48.830;8.730;2023-06-04T09:53:17;8.78;;;3.67;;
27847;SDS011;15212;48.830;8.730;2023-06-04T09:55:58;6.45;;;3.15;;
27847;SDS011;15212;48.830;8.730;2023-06-04T09:58:29;4.15;;;2.62;;
27847;SDS011;15212;48.830;8.730;2023-06-04T10:00:59;4.78;;;2.65;;
27847;SDS011;15212;48.830;8.730;2023-06-04T10:03:30;5.28;;;2.90;;
27847;SDS011;15212;48.830;8.730;2023-06-04T10:06:02;6.95;;;2.65;;
27847;SDS011;15212;48.830;8.730;2023-06-04T10:08:32;4.40;;;2.85;;
27847;SDS011;15212;48.830;8.730;2023-06-04T10:11:02;5.92;;;2.80;;
27847;SDS011;15212;48.830;8.730;2023-06-04T10:13:35;5.92;;;2.92;;
27847;SDS011;15212;48.830;8.730;2023-06-04T10:16:23;4.70;;;2.55;;
27847;SDS011;15212;48.830;8.730;2023-06-04T10:18:53;5.50;;;2.90;;
27847;SDS011;15212;48.830;8.730;2023-06-04T10:21:23;4.85;;;2.72;;
27847;SDS011;15212;48.830;8.730;2023-06-04T10:23:53;5.08;;;2.90;;
27847;SDS011;15212;48.830;8.730;2023-06-04T10:26:21;5.72;;;3.20;;
27847;SDS011;15212;48.830;8.730;2023-06-04T10:28:51;7.90;;;2.70;;
27847;SDS011;15212;48.830;8.730;2023-06-04T10:31:22;5.37;;;2.65;;
27847;SDS011;15212;48.830;8.730;2023-06-04T10:33:55;6.72;;;2.92;;
27847;SDS011;15212;48.830;8.730;2023-06-04T10:36:24;6.40;;;2.65;;
27847;SDS011;15212;48.830;8.730;2023-06-04T10:38:54;5.58;;;2.90;;
27847;SDS011;15212;48.830;8.730;2023-06-04T10:41:23;4.92;;;2.70;;
27847;SDS011;15212;48.830;8.730;2023-06-04T10:44:00;3.90;;;2.65;;
27847;SDS011;15212;48.830;8.730;2023-06-04T10:46:25;6.60;;;3.10;;
27847;SDS011;15212;48.830;8.730;2023-06-04T10:48:57;6.22;;;2.67;;
27847;SDS011;15212;48.830;8.730;2023-06-04T10:51:28;6.58;;;2.98;;
27847;SDS011;15212;48.830;8.730;2023-06-04T10:53:59;4.37;;;2.77;;
27847;SDS011;15212;48.830;8.730;2023-06-04T10:56:29;8.93;;;3.45;;
27847;SDS011;15212;48.830;8.730;2023-06-04T10:59:01;5.58;;;3.20;;
27847;SDS011;15212;48.830;8.730;2023-06-04T11:01:44;5.97;;;3.10;;
27847;SDS011;15212;48.830;8.730;2023-06-04T11:04:22;6.90;;;2.80;;
27847;SDS011;15212;48.830;8.730;2023-06-04T11:07:04;6.65;;;2.92;;
27847;SDS011;15212;48.830;8.730;2023-06-04T11:09:37;5.35;;;2.70;;
27847;SDS011;15212;48.830;8.730;2023-06-04T11:12:16;6.08;;;2.52;;
27847;SDS011;15212;48.830;8.730;2023-06-04T11:14:54;5.67;;;2.80;;
27847;SDS011;15212;48.830;8.730;2023-06-04T11:17:25;5.62;;;3.00;;
27847;SDS011;15212;48.830;8.730;2023-06-04T11:19:55;4.65;;;2.70;;
27847;SDS011;15212;48.830;8.730;2023-06-04T11:22:23;5.78;;;3.30;;
27847;SDS011;15212;48.830;8.730;2023-06-04T11:24:57;7.45;;;3.17;;
27847;SDS011;15212;48.830;8.730;2023-06-04T11:27:26;8.68;;;3.00;;
27847;SDS011;15212;48.830;8.730;2023-06-04T11:29:54;6.33;;;3.10;;
27847;SDS011;15212;48.830;8.730;2023-06-04T11:32:23;6.50;;;3.42;;
27847;SDS011;15212;48.830;8.730;2023-06-04T11:35:01;7.08;;;3.30;;
27847;SDS011;15212;48.830;8.730;2023-06-04T11:37:33;7.42;;;2.98;;
27847;SDS011;15212;48.830;8.730;2023-06-04T11:40:02;7.78;;;3.08;;
27847;SDS011;15212;48.830;8.730;2023-06-04T11:42:44;4.83;;;2.90;;
27847;SDS011;15212;48.830;8.730;2023-06-04T11:45:15;4.95;;;3.45;;
27847;SDS011;15212;48.830;8.730;2023-06-04T11:47:50;5.95;;;3.12;;
27847;SDS011;15212;48.830;8.730;2023-06-04T11:50:23;4.70;;;2.95;;
27847;SDS011;15212;48.830;8.730;2023-06-04T11:52:54;6.00;;;2.77;;
27847;SDS011;15212;48.830;8.730;2023-06-04T11:55:22;7.47;;;2.95;;
27847;SDS011;15212;48.830;8.730;2023-06-04T11:57:51;4.47;;;2.62;;
27847;SDS011;15212;48.830;8.730;2023-06-04T12:00:20;5.87;;;2.80;;
27847;SDS011;15212;48.830;8.730;2023-06-04T12:02:50;6.40;;;2.87;;
27847;SDS011;15212;48.830;8.730;2023-06-04T12:05:20;5.42;;;3.10;;
27847;SDS011;15212;48.830;8.730;2023-06-04T12:07:51;7.97;;;3.12;;
27847;SDS011;15212;48.830;8.730;2023-06-04T12:10:19;6.28;;;3.10;;
27847;SDS011;15212;48.830;8.730;2023-06-04T12:13:00;6.85;;;3.12;;
27847;SDS011;15212;48.830;8.730;2023-06-04T12:15:22;5.70;;;3.25;;
27847;SDS011;15212;48.830;8.730;2023-06-04T12:17:56;6.10;;;2.90;;
27847;SDS011;15212;48.830;8.730;2023-06-04T12:20:32;7.83;;;4.30;;
27847;SDS011;15212;48.830;8.730;2023-06-04T12:23:02;6.45;;;3.37;;
27847;SDS011;15212;48.830;8.730;2023-06-04T12:25:32;5.87;;;3.52;;
27847;SDS011;15212;48.830;8.730;2023-06-04T12:28:03;5.20;;;2.98;;
27847;SDS011;15212;48.830;8.730;2023-06-04T12:30:35;6.47;;;3.20;;
27847;SDS011;15212;48.830;8.730;2023-06-04T12:33:04;5.42;;;2.77;;
27847;SDS011;15212;48.830;8.730;2023-06-04T12:35:33;5.85;;;3.10;;
27847;SDS011;15212;48.830;8.730;2023-06-04T12:38:03;6.37;;;3.05;;
27847;SDS011;15212;48.830;8.730;2023-06-04T12:40:33;6.12;;;3.50;;
27847;SDS011;15212;48.830;8.730;2023-06-04T12:43:02;6.80;;;4.30;;
27847;SDS011;15212;48.830;8.730;2023-06-04T12:45:32;5.53;;;3.12;;
27847;SDS011;15212;48.830;8.730;2023-06-04T12:48:00;7.55;;;2.80;;
27847;SDS011;15212;48.830;8.730;2023-06-04T12:50:29;6.97;;;3.02;;
27847;SDS011;15212;48.830;8.730;2023-06-04T12:52:57;5.15;;;3.30;;
27847;SDS011;15212;48.830;8.730;2023-06-04T12:55:26;9.05;;;3.02;;
27847;SDS011;15212;48.830;8.730;2023-06-04T12:57:54;6.72;;;3.30;;
27847;SDS011;15212;48.830;8.730;2023-06-04T13:00:23;5.70;;;3.15;;
27847;SDS011;15212;48.830;8.730;2023-06-04T13:02:51;4.92;;;3.15;;
27847;SDS011;15212;48.830;8.730;2023-06-04T13:05:19;5.95;;;3.00;;
27847;SDS011;15212;48.830;8.730;2023-06-04T13:07:48;5.37;;;2.98;;
27847;SDS011;15212;48.830;8.730;2023-06-04T13:10:17;5.67;;;3.20;;
27847;SDS011;15212;48.830;8.730;2023-06-04T13:12:46;5.47;;;2.60;;
27847;SDS011;15212;48.830;8.730;2023-06-04T13:15:15;5.53;;;2.92;;
27847;SDS011;15212;48.830;8.730;2023-06-04T13:17:43;7.35;;;2.90;;
27847;SDS011;15212;48.830;8.730;2023-06-04T13:20:12;4.53;;;2.70;;
27847;SDS011;15212;48.830;8.730;2023-06-04T13:22:40;5.50;;;3.08;;
27847;SDS011;15212;48.830;8.730;2023-06-04T13:25:09;5.65;;;3.00;;
27847;SDS011;15212;48.830;8.730;2023-06-04T13:27:38;6.95;;;2.90;;
27847;SDS011;15212;48.830;8.730;2023-06-04T13:30:07;4.00;;;2.70;;
27847;SDS011;15212;48.830;8.730;2023-06-04T13:32:36;5.55;;;2.72;;
27847;SDS011;15212;48.830;8.730;2023-06-04T13:35:04;6.83;;;3.40;;
27847;SDS011;15212;48.830;8.730;2023-06-04T13:37:33;7.78;;;2.90;;
27847;SDS011;15212;48.830;8.730;2023-06-04T13:40:02;4.65;;;2.90;;
27847;SDS011;15212;48.830;8.730;2023-06-04T13:42:31;5.08;;;3.30;;
27847;SDS011;15212;48.830;8.730;2023-06-04T13:44:59;5.83;;;2.95;;
27847;SDS011;15212;48.830;8.730;2023-06-04T13:47:28;5.83;;;3.30;;
27847;SDS011;15212;48.830;8.730;2023-06-04T13:49:58;5.53;;;3.20;;
27847;SDS011;15212;48.830;8.730;2023-06-04T13:52:26;4.35;;;3.05;;
27847;SDS011;15212;48.830;8.730;2023-06-04T13:54:54;5.12;;;3.10;;
27847;SDS011;15212;48.830;8.730;2023-06-04T13:57:24;6.05;;;3.10;;
27847;SDS011;15212;48.830;8.730;2023-06-04T13:59:53;7.58;;;3.20;;
27847;SDS011;15212;48.830;8.730;2023-06-04T14:02:22;4.42;;;2.92;;
27847;SDS011;15212;48.830;8.730;2023-06-04T14:04:52;7.50;;;4.10;;
27847;SDS011;15212;48.830;8.730;2023-06-04T14:07:21;4.75;;;3.02;;
27847;SDS011;15212;48.830;8.730;2023-06-04T14:09:50;4.28;;;2.90;;
27847;SDS011;15212;48.830;8.730;2023-06-04T14:12:21;5.83;;;2.60;;
27847;SDS011;15212;48.830;8.730;2023-06-04T14:14:50;4.83;;;2.70;;
27847;SDS011;15212;48.830;8.730;2023-06-04T14:17:19;3.80;;;2.47;;
27847;SDS011;15212;48.830;8.730;2023-06-04T14:19:47;5.35;;;2.95;;
27847;SDS011;15212;48.830;8.730;2023-06-04T14:22:15;4.30;;;2.67;;
27847;SDS011;15212;48.830;8.730;2023-06-04T14:24:44;3.37;;;2.50;;
27847;SDS011;15212;48.830;8.730;2023-06-04T14:27:12;4.97;;;2.85;;
27847;SDS011;15212;48.830;8.730;2023-06-04T14:29:40;7.78;;;3.05;;
27847;SDS011;15212;48.830;8.730;2023-06-04T14:32:09;6.83;;;3.40;;
27847;SDS011;15212;48.830;8.730;2023-06-04T14:34:38;5.25;;;3.08;;
27847;SDS011;15212;48.830;8.730;2023-06-04T14:37:06;6.53;;;3.37;;
27847;SDS011;15212;48.830;8.730;2023-06-04T14:39:34;5.47;;;3.05;;
27847;SDS011;15212;48.830;8.730;2023-06-04T14:42:03;5.42;;;2.90;;
27847;SDS011;15212;48.830;8.730;2023-06-04T14:44:32;5.50;;;2.80;;
27847;SDS011;15212;48.830;8.730;2023-06-04T14:47:00;5.17;;;2.87;;
27847;SDS011;15212;48.830;8.730;2023-06-04T14:49:29;5.17;;;3.50;;
27847;SDS011;15212;48.830;8.730;2023-06-04T14:51:57;9.08;;;3.20;;
27847;SDS011;15212;48.830;8.730;2023-06-04T14:54:26;5.45;;;2.52;;
27847;SDS011;15212;48.830;8.730;2023-06-04T14:56:55;6.00;;;2.70;;
27847;SDS011;15212;48.830;8.730;2023-06-04T14:59:23;5.50;;;2.70;;
27847;SDS011;15212;48.830;8.730;2023-06-04T15:01:52;5.67;;;3.00;;
27847;SDS011;15212;48.830;8.730;2023-06-04T15:04:20;5.15;;;3.10;;
27847;SDS011;15212;48.830;8.730;2023-06-04T15:06:49;6.03;;;3.10;;